AMX502 MMMY-MMMX
Flight info
| Callsign | AMX502 |
|---|---|
| Flight time | N/A |
| Altitude | 37000 |
| Route | KERGA1A KERGA UT132 DARAN DARAN3B |
| Aircraft | B738/M-SDE2E3FGHIRWXY/LB1 |
Departure
| Time | 2026-04-25 02:19 |
|---|---|
| Airport | Monterrey International Airport (MMMY) |
Arrival
| Time | N/A |
|---|---|
| Airport | Mexico City Benito Juárez International Airport (MMMX) |
| Time | Latitude | Longitude | Altitude | Speed | Heading |
|---|---|---|---|---|---|
| 2026-04-25 01:43 | 25.77586 | -100.10879 | 1279 ft | 0 kts | 76° |
| 2026-04-25 02:02 | 25.77582 | -100.10895 | 1260 ft | 2 kts | 70° |
| 2026-04-25 02:02 | 25.77575 | -100.10912 | 1284 ft | 2 kts | 62° |
| 2026-04-25 02:03 | 25.77567 | -100.10927 | 1280 ft | 2 kts | 47° |
| 2026-04-25 02:03 | 25.77554 | -100.10939 | 1281 ft | 2 kts | 19° |
| 2026-04-25 02:03 | 25.77537 | -100.10942 | 1280 ft | 2 kts | 353° |
| 2026-04-25 02:03 | 25.77521 | -100.10938 | 1280 ft | 2 kts | 346° |
| 2026-04-25 02:04 | 25.77505 | -100.10933 | 1279 ft | 2 kts | 345° |
| 2026-04-25 02:04 | 25.77489 | -100.10929 | 1281 ft | 2 kts | 345° |
| 2026-04-25 02:04 | 25.77483 | -100.10927 | 1280 ft | 0 kts | 345° |
| 2026-04-25 02:08 | 25.77493 | -100.10930 | 1279 ft | 3 kts | 346° |
| 2026-04-25 02:08 | 25.77523 | -100.10938 | 1279 ft | 6 kts | 346° |
| 2026-04-25 02:08 | 25.77563 | -100.10950 | 1279 ft | 6 kts | 346° |
| 2026-04-25 02:09 | 25.77604 | -100.10962 | 1279 ft | 6 kts | 344° |
| 2026-04-25 02:09 | 25.77640 | -100.10984 | 1279 ft | 6 kts | 320° |
| 2026-04-25 02:09 | 25.77666 | -100.11019 | 1279 ft | 6 kts | 302° |
| 2026-04-25 02:09 | 25.77688 | -100.11057 | 1279 ft | 6 kts | 302° |
| 2026-04-25 02:10 | 25.77711 | -100.11091 | 1280 ft | 6 kts | 321° |
| 2026-04-25 02:10 | 25.77748 | -100.11086 | 1280 ft | 6 kts | 28° |
| 2026-04-25 02:10 | 25.77781 | -100.11064 | 1280 ft | 6 kts | 31° |
| 2026-04-25 02:10 | 25.77816 | -100.11050 | 1280 ft | 5 kts | 355° |
| 2026-04-25 02:11 | 25.77843 | -100.11078 | 1280 ft | 5 kts | 302° |
| 2026-04-25 02:11 | 25.77863 | -100.11117 | 1280 ft | 6 kts | 301° |
| 2026-04-25 02:11 | 25.77889 | -100.11163 | 1280 ft | 7 kts | 301° |
| 2026-04-25 02:11 | 25.77915 | -100.11209 | 1280 ft | 7 kts | 302° |
| 2026-04-25 02:12 | 25.77940 | -100.11255 | 1280 ft | 7 kts | 301° |
| 2026-04-25 02:12 | 25.77966 | -100.11303 | 1280 ft | 9 kts | 301° |
| 2026-04-25 02:12 | 25.78001 | -100.11367 | 1280 ft | 10 kts | 301° |
| 2026-04-25 02:12 | 25.78037 | -100.11432 | 1280 ft | 10 kts | 301° |
| 2026-04-25 02:13 | 25.78071 | -100.11496 | 1280 ft | 9 kts | 301° |
| 2026-04-25 02:13 | 25.78106 | -100.11557 | 1280 ft | 10 kts | 301° |
| 2026-04-25 02:13 | 25.78143 | -100.11625 | 1280 ft | 11 kts | 301° |
| 2026-04-25 02:13 | 25.78184 | -100.11700 | 1280 ft | 11 kts | 301° |
| 2026-04-25 02:14 | 25.78225 | -100.11774 | 1280 ft | 10 kts | 301° |
| 2026-04-25 02:14 | 25.78258 | -100.11807 | 1280 ft | 6 kts | 354° |
| 2026-04-25 02:14 | 25.78296 | -100.11789 | 1280 ft | 6 kts | 30° |
| 2026-04-25 02:14 | 25.78316 | -100.11776 | 1282 ft | 0 kts | 31° |
| 2026-04-25 02:16 | 25.78328 | -100.11768 | 1280 ft | 4 kts | 31° |
| 2026-04-25 02:16 | 25.78364 | -100.11743 | 1280 ft | 8 kts | 31° |
| 2026-04-25 02:16 | 25.78402 | -100.11705 | 1280 ft | 6 kts | 79° |
| 2026-04-25 02:17 | 25.78395 | -100.11681 | 1280 ft | 0 kts | 116° |
| 2026-04-25 02:18 | 25.78395 | -100.11680 | 1280 ft | 1 kts | 116° |
| 2026-04-25 02:18 | 25.78335 | -100.11571 | 1280 ft | 55 kts | 121° |
| 2026-04-25 02:18 | 25.77963 | -100.10893 | 1280 ft | 145 kts | 121° |
| 2026-04-25 02:18 | 25.77314 | -100.09711 | 1485 ft | 202 kts | 120° |
| 2026-04-25 02:19 | 25.76599 | -100.08391 | 2660 ft | 194 kts | 120° |
| 2026-04-25 02:19 | 25.75937 | -100.07142 | 3956 ft | 188 kts | 121° |
| 2026-04-25 02:19 | 25.75209 | -100.05838 | 4469 ft | 214 kts | 122° |
| 2026-04-25 02:19 | 25.74381 | -100.04359 | 4667 ft | 237 kts | 122° |
| 2026-04-25 02:20 | 25.73493 | -100.02762 | 5107 ft | 247 kts | 122° |
| 2026-04-25 02:20 | 25.72558 | -100.01072 | 5374 ft | 267 kts | 122° |
| 2026-04-25 02:20 | 25.71546 | -99.99282 | 5922 ft | 279 kts | 127° |
| 2026-04-25 02:20 | 25.70053 | -99.97911 | 6642 ft | 283 kts | 158° |
| 2026-04-25 02:21 | 25.68140 | -99.97468 | 7385 ft | 283 kts | 179° |
| 2026-04-25 02:21 | 25.66157 | -99.97465 | 8127 ft | 286 kts | 184° |
| 2026-04-25 02:21 | 25.64153 | -99.97546 | 8876 ft | 290 kts | 185° |
| 2026-04-25 02:21 | 25.62121 | -99.97639 | 9622 ft | 294 kts | 185° |
| 2026-04-25 02:22 | 25.60068 | -99.97729 | 10279 ft | 299 kts | 185° |
| 2026-04-25 02:22 | 25.57934 | -99.97817 | 10469 ft | 322 kts | 185° |
| 2026-04-25 02:22 | 25.55618 | -99.97905 | 10702 ft | 341 kts | 185° |
| 2026-04-25 02:22 | 25.53216 | -99.97987 | 11203 ft | 349 kts | 185° |
| 2026-04-25 02:23 | 25.50778 | -99.98064 | 11856 ft | 351 kts | 185° |
| 2026-04-25 02:23 | 25.48321 | -99.98140 | 12565 ft | 354 kts | 185° |
| 2026-04-25 02:23 | 25.45841 | -99.98216 | 13239 ft | 358 kts | 186° |
| 2026-04-25 02:23 | 25.43339 | -99.98294 | 13898 ft | 361 kts | 186° |
| 2026-04-25 02:24 | 25.40842 | -99.98372 | 14514 ft | 365 kts | 186° |
| 2026-04-25 02:24 | 25.38278 | -99.98452 | 15145 ft | 369 kts | 186° |
| 2026-04-25 02:24 | 25.35695 | -99.98534 | 15776 ft | 374 kts | 187° |
| 2026-04-25 02:24 | 25.33077 | -99.98641 | 16416 ft | 377 kts | 187° |
| 2026-04-25 02:25 | 25.30432 | -99.98770 | 17058 ft | 381 kts | 188° |
| 2026-04-25 02:25 | 25.27766 | -99.98904 | 17694 ft | 386 kts | 188° |
| 2026-04-25 02:25 | 25.25099 | -99.99038 | 18269 ft | 390 kts | 188° |
| 2026-04-25 02:25 | 25.22371 | -99.99173 | 18818 ft | 393 kts | 188° |
| 2026-04-25 02:26 | 25.19625 | -99.99306 | 19415 ft | 396 kts | 188° |
| 2026-04-25 02:26 | 25.16867 | -99.99438 | 19992 ft | 398 kts | 188° |
| 2026-04-25 02:26 | 25.14085 | -99.99571 | 20546 ft | 402 kts | 188° |
| 2026-04-25 02:26 | 25.11268 | -99.99705 | 21103 ft | 405 kts | 188° |
| 2026-04-25 02:27 | 25.08442 | -99.99839 | 21732 ft | 408 kts | 188° |
| 2026-04-25 02:27 | 25.05599 | -99.99975 | 22265 ft | 411 kts | 188° |
| 2026-04-25 02:27 | 25.02727 | -100.00111 | 22729 ft | 415 kts | 188° |
| 2026-04-25 02:27 | 24.99879 | -100.00244 | 23294 ft | 414 kts | 187° |
| 2026-04-25 02:28 | 24.96970 | -100.00380 | 23699 ft | 420 kts | 188° |
| 2026-04-25 02:28 | 24.94039 | -100.00516 | 24099 ft | 424 kts | 187° |
| 2026-04-25 02:28 | 24.91054 | -100.00486 | 24520 ft | 429 kts | 184° |
| 2026-04-25 02:28 | 24.89067 | -100.00383 | 24828 ft | 432 kts | 183° |
| 2026-04-25 02:29 | 24.86054 | -100.00176 | 25224 ft | 435 kts | 182° |
| 2026-04-25 02:29 | 24.82031 | -99.99877 | 25654 ft | 439 kts | 182° |
| 2026-04-25 02:29 | 24.79994 | -99.99734 | 25979 ft | 441 kts | 182° |
| 2026-04-25 02:29 | 24.76926 | -99.99529 | 26439 ft | 443 kts | 183° |
| 2026-04-25 02:30 | 24.73833 | -99.99333 | 26816 ft | 446 kts | 183° |
| 2026-04-25 02:30 | 24.70716 | -99.99145 | 27172 ft | 449 kts | 183° |
| 2026-04-25 02:30 | 24.67587 | -99.98963 | 27510 ft | 452 kts | 183° |
| 2026-04-25 02:30 | 24.64436 | -99.98782 | 27883 ft | 455 kts | 183° |
| 2026-04-25 02:31 | 24.61266 | -99.98601 | 28248 ft | 457 kts | 183° |
| 2026-04-25 02:31 | 24.58080 | -99.98420 | 28603 ft | 460 kts | 183° |
| 2026-04-25 02:31 | 24.54871 | -99.98237 | 28913 ft | 463 kts | 183° |
| 2026-04-25 02:31 | 24.51633 | -99.98053 | 29277 ft | 466 kts | 183° |
| 2026-04-25 02:32 | 24.48385 | -99.97868 | 29595 ft | 469 kts | 183° |
| 2026-04-25 02:32 | 24.45156 | -99.97685 | 29884 ft | 472 kts | 183° |
| 2026-04-25 02:32 | 24.41865 | -99.97497 | 30180 ft | 474 kts | 183° |
| 2026-04-25 02:32 | 24.38567 | -99.97308 | 30488 ft | 475 kts | 183° |
| 2026-04-25 02:33 | 24.35262 | -99.97119 | 30761 ft | 476 kts | 183° |
| 2026-04-25 02:33 | 24.31947 | -99.96930 | 31025 ft | 478 kts | 183° |
| 2026-04-25 02:33 | 24.28617 | -99.96741 | 31291 ft | 479 kts | 183° |
| 2026-04-25 02:33 | 24.25276 | -99.96551 | 31541 ft | 481 kts | 183° |
| 2026-04-25 02:34 | 24.21928 | -99.96361 | 31831 ft | 482 kts | 183° |
| 2026-04-25 02:34 | 24.18620 | -99.96172 | 32287 ft | 478 kts | 183° |
| 2026-04-25 02:34 | 24.15310 | -99.95981 | 32802 ft | 474 kts | 183° |
| 2026-04-25 02:34 | 24.12029 | -99.95793 | 33171 ft | 472 kts | 183° |
| 2026-04-25 02:35 | 24.08747 | -99.95607 | 33441 ft | 473 kts | 183° |
| 2026-04-25 02:35 | 24.05472 | -99.95422 | 33949 ft | 467 kts | 183° |
| 2026-04-25 02:35 | 24.02231 | -99.95238 | 34273 ft | 467 kts | 183° |
| 2026-04-25 02:35 | 23.98972 | -99.95056 | 34401 ft | 470 kts | 183° |
| 2026-04-25 02:36 | 23.95690 | -99.94873 | 34567 ft | 473 kts | 183° |
| 2026-04-25 02:36 | 23.92395 | -99.94688 | 34875 ft | 472 kts | 183° |
| 2026-04-25 02:36 | 23.89135 | -99.94502 | 35333 ft | 466 kts | 183° |
| 2026-04-25 02:36 | 23.85909 | -99.94317 | 35797 ft | 462 kts | 183° |
| 2026-04-25 02:37 | 23.82739 | -99.94137 | 36086 ft | 462 kts | 183° |
| 2026-04-25 02:37 | 23.79525 | -99.93957 | 36325 ft | 462 kts | 183° |
| 2026-04-25 02:37 | 23.76307 | -99.93777 | 36598 ft | 462 kts | 183° |
| 2026-04-25 02:37 | 23.73107 | -99.93597 | 36926 ft | 460 kts | 183° |
| 2026-04-25 02:38 | 23.69904 | -99.93416 | 37277 ft | 457 kts | 183° |
| 2026-04-25 02:38 | 23.66733 | -99.93237 | 37573 ft | 456 kts | 183° |
| 2026-04-25 02:38 | 23.63564 | -99.93059 | 37826 ft | 455 kts | 183° |
| 2026-04-25 02:38 | 23.60441 | -99.92884 | 38063 ft | 455 kts | 182° |
| 2026-04-25 02:39 | 23.57287 | -99.92707 | 38323 ft | 454 kts | 183° |
| 2026-04-25 02:39 | 23.54141 | -99.92530 | 38575 ft | 452 kts | 182° |
| 2026-04-25 02:39 | 23.50993 | -99.92354 | 38764 ft | 452 kts | 183° |
| 2026-04-25 02:40 | 23.44679 | -99.92001 | 38839 ft | 456 kts | 182° |
| 2026-04-25 02:40 | 23.38359 | -99.91646 | 38831 ft | 453 kts | 182° |
| 2026-04-25 02:41 | 23.32090 | -99.91294 | 38802 ft | 446 kts | 183° |
| 2026-04-25 02:41 | 23.25906 | -99.90952 | 38836 ft | 449 kts | 182° |
| 2026-04-25 02:42 | 23.19619 | -99.90608 | 38797 ft | 456 kts | 182° |
| 2026-04-25 02:42 | 23.13264 | -99.90255 | 38812 ft | 455 kts | 182° |
| 2026-04-25 02:43 | 23.06999 | -99.89905 | 38786 ft | 453 kts | 182° |
| 2026-04-25 02:43 | 23.00693 | -99.89554 | 38790 ft | 452 kts | 182° |
| 2026-04-25 02:44 | 22.94427 | -99.89207 | 38787 ft | 450 kts | 182° |
| 2026-04-25 02:44 | 22.88181 | -99.88861 | 38786 ft | 449 kts | 182° |
| 2026-04-25 02:45 | 22.81946 | -99.88517 | 38791 ft | 449 kts | 182° |
| 2026-04-25 02:45 | 22.75729 | -99.88175 | 38792 ft | 450 kts | 182° |
| 2026-04-25 02:46 | 22.69447 | -99.87829 | 38791 ft | 452 kts | 182° |
| 2026-04-25 02:46 | 22.63151 | -99.87482 | 38790 ft | 453 kts | 182° |
| 2026-04-25 02:47 | 22.56882 | -99.87137 | 38790 ft | 455 kts | 182° |
| 2026-04-25 02:47 | 22.50552 | -99.86789 | 38791 ft | 455 kts | 182° |
| 2026-04-25 02:48 | 22.44205 | -99.86440 | 38783 ft | 457 kts | 182° |
| 2026-04-25 02:48 | 22.37841 | -99.86090 | 38794 ft | 457 kts | 182° |
| 2026-04-25 02:49 | 22.31469 | -99.85740 | 38795 ft | 458 kts | 182° |
| 2026-04-25 02:49 | 22.25136 | -99.85393 | 38796 ft | 458 kts | 182° |
| 2026-04-25 02:50 | 22.18767 | -99.85044 | 38801 ft | 458 kts | 182° |
| 2026-04-25 02:50 | 22.12395 | -99.84695 | 38807 ft | 458 kts | 182° |